KBFD/BFD METAR and TAF weather

Enter ICAO airport designator
Station Type Date Time Source
KBFD METAR 2019/10/18 06:15 UTC NOAA

KBFD 180615Z AUTO 30010KT 9SM BKN009 OVC014 04/02 A2984 RMK AO2 RAB0559E10 CIG 007V012 P0000 T00440022


Station Type Date Time Source
KBFD Decoded METAR 2019/10/18 06:15 UTC NOAA

BRADFORD REGIONAL AIRPORT, PA, United States (KBFD) 41-48N 078-38W 647M
Oct 18, 2019 - 02:15 AM EDT / 2019.10.18 0615 UTC
Wind: from the WNW (300 degrees) at 12 MPH (10 KT):0
Visibility: 9 mile(s):0
Sky conditions: overcast
Precipitation last hour: A trace
Temperature: 39.9 F (4.4 C)
Dew Point: 36.0 F (2.2 C)
Relative Humidity: 85%
Pressure (altimeter): 29.84 in. Hg (1010 hPa)
ob: KBFD 180615Z AUTO 30010KT 9SM BKN009 OVC014 04/02 A2984 RMK AO2 RAB0559E10 CIG 007V012 P0000 T00440022
cycle: 6

Station Type Date Time Source
KBFD TAF 2019/10/18 06:59 UTC NOAA

TAF KBFD 180559Z 1806/1906 31011G18KT P6SM BKN009 OVC012
FM180700 31011G18KT P6SM SCT009 OVC012
FM181600 30009KT P6SM BKN025
FM181900 31008KT P6SM SCT035
FM190000 VRB02KT P6SM SKC

Example: see airport list